SBOSBO ABV / DNAA
Speedbird OnlineSpeedbird Online ABV / DNAA

Nnamdi Azikiwe International Airport
00:01 28.2°C

Location Abuja, Nigeria
Latitude: 9.006790161132812
Longitude: 7.263169765472412
Web Airport Website | Wikipedia
Altitude 342 Meter / 1123 Feet
Distance 4,770 KM / 2,964 Miles
from London.
Time Zone UTC +1 hours (Africa/Lagos)
Codes IATA: ABV
ICAO: DNAA
Currency £1 equals NGN 557.28
Runways
RunwayLength (m)Surface
043609Asphalt
223609Asphalt
Radio
TypeDescriptionFrequency
APPAPP127.9
ATISATIS127.05
GND121.9
TWRTWR118.6
Live ATC
METAR DNAA 081400Z 29004KT 5000 NSC 36/09 Q1010 TEMPO 3000 HZ
TAF TAF DNAA 081100Z 0812/0918 09005KT 7000 NSC PROB30 TEMPO 0904/0910 VRB02KT 3000 HZ
Weather As Of 09 Feb 2023 00:01
Description Broken clouds
Wind 12 km/h from North (17°)
Cloud Cover 67%
Precipitation Rain: none, Snow: none
Sunrise 06:51
Sunset 18:39
Lounges SDS Executive Lounge, International Terminal
FAAN Executive VIP Lounge, International Terminal
Rotations During the last 90 days there were
87 flights from LHR
87 flights to LHR



Support Speedbird Online

© 2017-2023 Speedbird Online